No particular awareness of the weather is required.    There are no Weather-warnings


Meteo18 Weather Cam more information Meteo18 Weather Cam


Thunder radar more information blitzortung!


Rain radar more information rain snow radar


Visit our other weather sites:

Template documentation
and downloads

And another site



Weather Underground History page Text

Daily Summary for April 20, 2017 Units:  Both    English   Metric
« Previous Day
Next Day »
Daily Weekly Monthly Yearly Custom
  High: Low: Average:
Temperature: 52.9 °F /  11.6 °C 30.9 °F /  -0.6 °C 43.2 °F /  6.2 °C
Dew Point: 29.3 °F /  -1.5 °C 22.5 °F /  -5.3 °C 25.9 °F /  -3.4 °C
Humidity: 74 % 35 % 52 %
Wind Speed: 20 mph /  32.2 km/h - 6.3 mph /  10.1 km/h
Wind Gust: 23 mph /  37.0 km/h - -
Wind:- - NE
Pressure: 30.6 in /  1035.4 hPa 30.5 in /  1032.4 hPa -
Precipitation: 0 in /  0.0 mm    
Historical Graphs
 
 
Tabular Data for April 20, 2017
Time Temperature Dew Point Pressure Wind Wind Speed Wind Gust Humidity Rainfall Rate (Hourly)
00:02 39 °F /  3.9 °C 25.5 °F /  -3.6 °C 30.5 in /  1033.1 hPa NE 4 mph /  6.4 km/h 6 mph /  9.7 km/h 58 % 0 in /  0.0 mm
00:07 39 °F /  3.9 °C 25.5 °F /  -3.6 °C 30.5 in /  1033.1 hPa NE 4 mph /  6.4 km/h 7 mph /  11.3 km/h 58 % 0 in /  0.0 mm
00:12 38.8 °F /  3.8 °C 25.7 °F /  -3.5 °C 30.5 in /  1033.1 hPa NNE 4 mph /  6.4 km/h 7 mph /  11.3 km/h 59 % 0 in /  0.0 mm
00:17 38.8 °F /  3.8 °C 25.7 °F /  -3.5 °C 30.5 in /  1033.1 hPa NNE 5 mph /  8.0 km/h 7 mph /  11.3 km/h 59 % 0 in /  0.0 mm
00:22 38.7 °F /  3.7 °C 25.5 °F /  -3.6 °C 30.5 in /  1033.1 hPa NE 3 mph /  4.8 km/h 8 mph /  12.9 km/h 59 % 0 in /  0.0 mm
00:27 38.5 °F /  3.6 °C 25.9 °F /  -3.4 °C 30.5 in /  1033.1 hPa NE 2 mph /  3.2 km/h 8 mph /  12.9 km/h 60 % 0 in /  0.0 mm
00:32 38.3 °F /  3.5 °C 25.7 °F /  -3.5 °C 30.5 in /  1033.1 hPa NE 2 mph /  3.2 km/h 8 mph /  12.9 km/h 60 % 0 in /  0.0 mm
00:37 38.1 °F /  3.4 °C 25.9 °F /  -3.4 °C 30.5 in /  1033.1 hPa ENE 4 mph /  6.4 km/h 8 mph /  12.9 km/h 61 % 0 in /  0.0 mm
00:42 37.9 °F /  3.3 °C 25.7 °F /  -3.5 °C 30.5 in /  1033.1 hPa NE 2 mph /  3.2 km/h 8 mph /  12.9 km/h 61 % 0 in /  0.0 mm
00:47 37.8 °F /  3.2 °C 25.5 °F /  -3.6 °C 30.5 in /  1033.4 hPa NE 4 mph /  6.4 km/h 8 mph /  12.9 km/h 61 % 0 in /  0.0 mm
00:52 37.6 °F /  3.1 °C 25.3 °F /  -3.7 °C 30.5 in /  1033.4 hPa NE 2 mph /  3.2 km/h 8 mph /  12.9 km/h 61 % 0 in /  0.0 mm
00:57 37.2 °F /  2.9 °C 25 °F /  -3.9 °C 30.5 in /  1033.4 hPa NE 3 mph /  4.8 km/h 5 mph /  8.0 km/h 61 % 0 in /  0.0 mm
01:02 37.6 °F /  3.1 °C 25.3 °F /  -3.7 °C 30.5 in /  1033.4 hPa NNE 2 mph /  3.2 km/h 5 mph /  8.0 km/h 61 % 0 in /  0.0 mm
01:07 37.6 °F /  3.1 °C 25 °F /  -3.9 °C 30.5 in /  1033.4 hPa NE 3 mph /  4.8 km/h 7 mph /  11.3 km/h 60 % 0 in /  0.0 mm
01:12 37.6 °F /  3.1 °C 25 °F /  -3.9 °C 30.5 in /  1033.4 hPa NE 3 mph /  4.8 km/h 7 mph /  11.3 km/h 60 % 0 in /  0.0 mm
01:17 37.4 °F /  3.0 °C 24.8 °F /  -4.0 °C 30.5 in /  1033.4 hPa NE 1 mph /  1.6 km/h 5 mph /  8.0 km/h 60 % 0 in /  0.0 mm
01:22 37.2 °F /  2.9 °C 24.6 °F /  -4.1 °C 30.5 in /  1033.4 hPa NE 1 mph /  1.6 km/h 5 mph /  8.0 km/h 60 % 0 in /  0.0 mm
01:32 37.2 °F /  2.9 °C 24.6 °F /  -4.1 °C 30.5 in /  1033.4 hPa NNE 2 mph /  3.2 km/h 5 mph /  8.0 km/h 60 % 0 in /  0.0 mm
01:37 37 °F /  2.8 °C 24.4 °F /  -4.2 °C 30.5 in /  1033.4 hPa NE 3 mph /  4.8 km/h 7 mph /  11.3 km/h 60 % 0 in /  0.0 mm
01:42 37 °F /  2.8 °C 24.4 °F /  -4.2 °C 30.5 in /  1033.4 hPa ENE 1 mph /  1.6 km/h 7 mph /  11.3 km/h 60 % 0 in /  0.0 mm
01:47 37 °F /  2.8 °C 24.4 °F /  -4.2 °C 30.5 in /  1033.4 hPa Calm   7 mph /  11.3 km/h 60 % 0 in /  0.0 mm
01:52 37 °F /  2.8 °C 24.4 °F /  -4.2 °C 30.5 in /  1033.4 hPa Calm   7 mph /  11.3 km/h 60 % 0 in /  0.0 mm
01:57 36.9 °F /  2.7 °C 24.3 °F /  -4.3 °C 30.5 in /  1033.4 hPa Calm   5 mph /  8.0 km/h 60 % 0 in /  0.0 mm
02:02 36.3 °F /  2.4 °C 24.1 °F /  -4.4 °C 30.5 in /  1033.4 hPa NE 2 mph /  3.2 km/h 5 mph /  8.0 km/h 61 % 0 in /  0.0 mm
02:07 36 °F /  2.2 °C 24.3 °F /  -4.3 °C 30.5 in /  1033.4 hPa NE 2 mph /  3.2 km/h 4 mph /  6.4 km/h 62 % 0 in /  0.0 mm
02:12 36 °F /  2.2 °C 24.3 °F /  -4.3 °C 30.5 in /  1033.4 hPa NE 3 mph /  4.8 km/h 4 mph /  6.4 km/h 62 % 0 in /  0.0 mm
02:17 36 °F /  2.2 °C 24.3 °F /  -4.3 °C 30.5 in /  1033.4 hPa NNE 3 mph /  4.8 km/h 7 mph /  11.3 km/h 62 % 0 in /  0.0 mm
02:22 36 °F /  2.2 °C 24.3 °F /  -4.3 °C 30.5 in /  1033.4 hPa NNE 2 mph /  3.2 km/h 7 mph /  11.3 km/h 62 % 0 in /  0.0 mm
02:32 35.8 °F /  2.1 °C 24.1 °F /  -4.4 °C 30.5 in /  1033.4 hPa Calm   7 mph /  11.3 km/h 62 % 0 in /  0.0 mm
02:37 35.6 °F /  2.0 °C 23.9 °F /  -4.5 °C 30.5 in /  1033.4 hPa NNE 2 mph /  3.2 km/h 4 mph /  6.4 km/h 62 % 0 in /  0.0 mm
02:47 35.1 °F /  1.7 °C 24.1 °F /  -4.4 °C 30.5 in /  1033.4 hPa North 1 mph /  1.6 km/h 2 mph /  3.2 km/h 64 % 0 in /  0.0 mm
02:52 34.7 °F /  1.5 °C 24.1 °F /  -4.4 °C 30.5 in /  1033.4 hPa NNE 1 mph /  1.6 km/h 2 mph /  3.2 km/h 65 % 0 in /  0.0 mm
03:02 34.3 °F /  1.3 °C 24.1 °F /  -4.4 °C 30.5 in /  1033.4 hPa NNE 1 mph /  1.6 km/h 4 mph /  6.4 km/h 66 % 0 in /  0.0 mm
03:07 34.3 °F /  1.3 °C 24.1 °F /  -4.4 °C 30.5 in /  1033.4 hPa NW 1 mph /  1.6 km/h 4 mph /  6.4 km/h 66 % 0 in /  0.0 mm
03:12 34.2 °F /  1.2 °C 24.1 °F /  -4.4 °C 30.5 in /  1033.4 hPa NNW 2 mph /  3.2 km/h 4 mph /  6.4 km/h 66 % 0 in /  0.0 mm
03:17 34.2 °F /  1.2 °C 24.1 °F /  -4.4 °C 30.5 in /  1033.4 hPa NNE 4 mph /  6.4 km/h 6 mph /  9.7 km/h 66 % 0 in /  0.0 mm
03:22 34 °F /  1.1 °C 23.9 °F /  -4.5 °C 30.5 in /  1033.4 hPa NE 3 mph /  4.8 km/h 6 mph /  9.7 km/h 66 % 0 in /  0.0 mm
03:27 34 °F /  1.1 °C 23.9 °F /  -4.5 °C 30.5 in /  1033.4 hPa North 1 mph /  1.6 km/h 5 mph /  8.0 km/h 66 % 0 in /  0.0 mm
03:32 34 °F /  1.1 °C 23.9 °F /  -4.5 °C 30.5 in /  1033.4 hPa ENE 2 mph /  3.2 km/h 5 mph /  8.0 km/h 66 % 0 in /  0.0 mm
03:37 34 °F /  1.1 °C 23.9 °F /  -4.5 °C 30.5 in /  1033.4 hPa Calm   6 mph /  9.7 km/h 66 % 0 in /  0.0 mm
03:42 34 °F /  1.1 °C 23.9 °F /  -4.5 °C 30.5 in /  1033.4 hPa Calm   6 mph /  9.7 km/h 66 % 0 in /  0.0 mm
03:47 33.6 °F /  0.9 °C 23.5 °F /  -4.7 °C 30.5 in /  1033.4 hPa NNE 3 mph /  4.8 km/h 5 mph /  8.0 km/h 66 % 0 in /  0.0 mm
03:52 33.4 °F /  0.8 °C 23.7 °F /  -4.6 °C 30.5 in /  1033.4 hPa Calm   5 mph /  8.0 km/h 67 % 0 in /  0.0 mm
03:57 33.4 °F /  0.8 °C 23.7 °F /  -4.6 °C 30.5 in /  1033.4 hPa NNE 1 mph /  1.6 km/h 4 mph /  6.4 km/h 67 % 0 in /  0.0 mm
04:02 33.3 °F /  0.7 °C 23.9 °F /  -4.5 °C 30.5 in /  1033.4 hPa Calm   4 mph /  6.4 km/h 68 % 0 in /  0.0 mm
04:12 33.1 °F /  0.6 °C 24.1 °F /  -4.4 °C 30.5 in /  1033.4 hPa NW 1 mph /  1.6 km/h 4 mph /  6.4 km/h 69 % 0 in /  0.0 mm
04:17 33.3 °F /  0.7 °C 23.9 °F /  -4.5 °C 30.5 in /  1033.4 hPa North 7 mph /  11.3 km/h 7 mph /  11.3 km/h 68 % 0 in /  0.0 mm
04:22 33.8 °F /  1.0 °C 24.1 °F /  -4.4 °C 30.5 in /  1033.4 hPa Calm   7 mph /  11.3 km/h 67 % 0 in /  0.0 mm
04:32 34.2 °F /  1.2 °C 23.5 °F /  -4.7 °C 30.5 in /  1033.4 hPa NNE 6 mph /  9.7 km/h 9 mph /  14.5 km/h 65 % 0 in /  0.0 mm
04:37 34.3 °F /  1.3 °C 23.7 °F /  -4.6 °C 30.5 in /  1033.4 hPa NNE 9 mph /  14.5 km/h 10 mph /  16.1 km/h 65 % 0 in /  0.0 mm
04:42 34.2 °F /  1.2 °C 23.5 °F /  -4.7 °C 30.5 in /  1033.4 hPa NE 5 mph /  8.0 km/h 10 mph /  16.1 km/h 65 % 0 in /  0.0 mm
04:47 34.2 °F /  1.2 °C 24.1 °F /  -4.4 °C 30.5 in /  1033.4 hPa NE 6 mph /  9.7 km/h 11 mph /  17.7 km/h 66 % 0 in /  0.0 mm
04:52 34 °F /  1.1 °C 23.9 °F /  -4.5 °C 30.5 in /  1033.4 hPa NNE 3 mph /  4.8 km/h 11 mph /  17.7 km/h 66 % 0 in /  0.0 mm
05:02 33.6 °F /  0.9 °C 23.5 °F /  -4.7 °C 30.5 in /  1033.4 hPa NE 6 mph /  9.7 km/h 11 mph /  17.7 km/h 66 % 0 in /  0.0 mm
05:07 33.6 °F /  0.9 °C 23.5 °F /  -4.7 °C 30.5 in /  1033.4 hPa NE 5 mph /  8.0 km/h 8 mph /  12.9 km/h 66 % 0 in /  0.0 mm
05:17 33.4 °F /  0.8 °C 23.7 °F /  -4.6 °C 30.5 in /  1033.4 hPa NE 2 mph /  3.2 km/h 8 mph /  12.9 km/h 67 % 0 in /  0.0 mm
05:22 33.4 °F /  0.8 °C 23.7 °F /  -4.6 °C 30.5 in /  1033.4 hPa NE 4 mph /  6.4 km/h 8 mph /  12.9 km/h 67 % 0 in /  0.0 mm
05:32 32.9 °F /  0.5 °C 23.5 °F /  -4.7 °C 30.5 in /  1033.4 hPa NNW 1 mph /  1.6 km/h 8 mph /  12.9 km/h 68 % 0 in /  0.0 mm
05:42 32.4 °F /  0.2 °C 23.7 °F /  -4.6 °C 30.5 in /  1033.4 hPa NNE 3 mph /  4.8 km/h 7 mph /  11.3 km/h 70 % 0 in /  0.0 mm
05:52 31.8 °F /  -0.1 °C 23.5 °F /  -4.7 °C 30.5 in /  1033.4 hPa NE 2 mph /  3.2 km/h 6 mph /  9.7 km/h 71 % 0 in /  0.0 mm
06:02 31.6 °F /  -0.2 °C 23.7 °F /  -4.6 °C 30.5 in /  1033.4 hPa North 1 mph /  1.6 km/h 5 mph /  8.0 km/h 72 % 0 in /  0.0 mm
06:07 31.6 °F /  -0.2 °C 23.7 °F /  -4.6 °C 30.5 in /  1033.4 hPa NE 1 mph /  1.6 km/h 5 mph /  8.0 km/h 72 % 0 in /  0.0 mm
06:12 31.5 °F /  -0.3 °C 23.5 °F /  -4.7 °C 30.5 in /  1033.7 hPa Calm   5 mph /  8.0 km/h 72 % 0 in /  0.0 mm
06:17 31.5 °F /  -0.3 °C 23.9 °F /  -4.5 °C 30.5 in /  1033.4 hPa Calm   5 mph /  8.0 km/h 73 % 0 in /  0.0 mm
06:22 31.5 °F /  -0.3 °C 23.9 °F /  -4.5 °C 30.5 in /  1033.4 hPa NNE 1 mph /  1.6 km/h 5 mph /  8.0 km/h 73 % 0 in /  0.0 mm
06:32 30.9 °F /  -0.6 °C 23.4 °F /  -4.8 °C 30.5 in /  1033.4 hPa NNE 4 mph /  6.4 km/h 4 mph /  6.4 km/h 73 % 0 in /  0.0 mm
06:42 31.5 °F /  -0.3 °C 24.1 °F /  -4.4 °C 30.5 in /  1033.7 hPa NNE 4 mph /  6.4 km/h 6 mph /  9.7 km/h 74 % 0 in /  0.0 mm
06:52 32.2 °F /  0.1 °C 24.3 °F /  -4.3 °C 30.5 in /  1033.7 hPa NNE 2 mph /  3.2 km/h 7 mph /  11.3 km/h 72 % 0 in /  0.0 mm
06:57 31.8 °F /  -0.1 °C 23.9 °F /  -4.5 °C 30.5 in /  1033.7 hPa NE 2 mph /  3.2 km/h 8 mph /  12.9 km/h 72 % 0 in /  0.0 mm
07:02 31.5 °F /  -0.3 °C 23.9 °F /  -4.5 °C 30.5 in /  1033.7 hPa North 5 mph /  8.0 km/h 8 mph /  12.9 km/h 73 % 0 in /  0.0 mm
07:12 31.8 °F /  -0.1 °C 24.1 °F /  -4.4 °C 30.5 in /  1033.7 hPa North 1 mph /  1.6 km/h 7 mph /  11.3 km/h 73 % 0 in /  0.0 mm
07:17 31.8 °F /  -0.1 °C 24.1 °F /  -4.4 °C 30.5 in /  1033.7 hPa NNE 3 mph /  4.8 km/h 7 mph /  11.3 km/h 73 % 0 in /  0.0 mm
07:22 31.8 °F /  -0.1 °C 24.1 °F /  -4.4 °C 30.5 in /  1033.7 hPa Calm   7 mph /  11.3 km/h 73 % 0 in /  0.0 mm
07:32 32.2 °F /  0.1 °C 24.4 °F /  -4.2 °C 30.5 in /  1034.1 hPa NNE 4 mph /  6.4 km/h 8 mph /  12.9 km/h 73 % 0 in /  0.0 mm
07:42 32.7 °F /  0.4 °C 24.6 °F /  -4.1 °C 30.5 in /  1034.1 hPa North 6 mph /  9.7 km/h 7 mph /  11.3 km/h 72 % 0 in /  0.0 mm
07:52 33.3 °F /  0.7 °C 24.8 °F /  -4.0 °C 30.5 in /  1034.4 hPa NE 2 mph /  3.2 km/h 8 mph /  12.9 km/h 71 % 0 in /  0.0 mm
08:02 33.6 °F /  0.9 °C 24.8 °F /  -4.0 °C 30.5 in /  1034.4 hPa NE 7 mph /  11.3 km/h 7 mph /  11.3 km/h 70 % 0 in /  0.0 mm
08:07 34.2 °F /  1.2 °C 25 °F /  -3.9 °C 30.6 in /  1034.8 hPa NE 6 mph /  9.7 km/h 11 mph /  17.7 km/h 69 % 0 in /  0.0 mm
08:12 34.5 °F /  1.4 °C 25 °F /  -3.9 °C 30.6 in /  1034.8 hPa NE 8 mph /  12.9 km/h 11 mph /  17.7 km/h 68 % 0 in /  0.0 mm
08:17 34.9 °F /  1.6 °C 25 °F /  -3.9 °C 30.6 in /  1034.8 hPa NE 8 mph /  12.9 km/h 11 mph /  17.7 km/h 67 % 0 in /  0.0 mm
08:22 35.2 °F /  1.8 °C 25 °F /  -3.9 °C 30.6 in /  1034.8 hPa NE 7 mph /  11.3 km/h 11 mph /  17.7 km/h 66 % 0 in /  0.0 mm
08:32 35.6 °F /  2.0 °C 25 °F /  -3.9 °C 30.6 in /  1034.8 hPa North 6 mph /  9.7 km/h 12 mph /  19.3 km/h 65 % 0 in /  0.0 mm
08:42 36.1 °F /  2.3 °C 25.2 °F /  -3.8 °C 30.6 in /  1035.1 hPa NNE 4 mph /  6.4 km/h 12 mph /  19.3 km/h 64 % 0 in /  0.0 mm
08:52 36.7 °F /  2.6 °C 25.7 °F /  -3.5 °C 30.6 in /  1035.1 hPa East 5 mph /  8.0 km/h 12 mph /  19.3 km/h 64 % 0 in /  0.0 mm
09:02 36.9 °F /  2.7 °C 25.9 °F /  -3.4 °C 30.6 in /  1035.1 hPa NNE 6 mph /  9.7 km/h 13 mph /  20.9 km/h 64 % 0 in /  0.0 mm
09:12 37 °F /  2.8 °C 25.7 °F /  -3.5 °C 30.6 in /  1035.1 hPa NE 5 mph /  8.0 km/h 13 mph /  20.9 km/h 63 % 0 in /  0.0 mm
09:17 37.2 °F /  2.9 °C 26.2 °F /  -3.2 °C 30.6 in /  1035.4 hPa NE 4 mph /  6.4 km/h 13 mph /  20.9 km/h 64 % 0 in /  0.0 mm
09:22 37.6 °F /  3.1 °C 26.1 °F /  -3.3 °C 30.6 in /  1035.4 hPa East 5 mph /  8.0 km/h 13 mph /  20.9 km/h 63 % 0 in /  0.0 mm
09:32 37.9 °F /  3.3 °C 26.4 °F /  -3.1 °C 30.6 in /  1035.4 hPa NE 12 mph /  19.3 km/h 13 mph /  20.9 km/h 63 % 0 in /  0.0 mm
09:37 38.1 °F /  3.4 °C 26.6 °F /  -3.0 °C 30.6 in /  1035.1 hPa NE 7 mph /  11.3 km/h 17 mph /  27.4 km/h 63 % 0 in /  0.0 mm
09:42 38.1 °F /  3.4 °C 26.6 °F /  -3.0 °C 30.6 in /  1035.1 hPa NNE 7 mph /  11.3 km/h 17 mph /  27.4 km/h 63 % 0 in /  0.0 mm
09:47 38.5 °F /  3.6 °C 27.3 °F /  -2.6 °C 30.6 in /  1035.1 hPa NE 5 mph /  8.0 km/h 14 mph /  22.5 km/h 64 % 0 in /  0.0 mm
09:52 38.8 °F /  3.8 °C 27 °F /  -2.8 °C 30.6 in /  1035.1 hPa NE 8 mph /  12.9 km/h 14 mph /  22.5 km/h 62 % 0 in /  0.0 mm
10:02 39.7 °F /  4.3 °C 26.6 °F /  -3.0 °C 30.6 in /  1035.1 hPa NNE 11 mph /  17.7 km/h 14 mph /  22.5 km/h 59 % 0 in /  0.0 mm
10:12 40.1 °F /  4.5 °C 25.7 °F /  -3.5 °C 30.6 in /  1035.1 hPa NE 6 mph /  9.7 km/h 16 mph /  25.7 km/h 56 % 0 in /  0.0 mm
10:17 40.6 °F /  4.8 °C 26.2 °F /  -3.2 °C 30.6 in /  1035.1 hPa East 9 mph /  14.5 km/h 19 mph /  30.6 km/h 56 % 0 in /  0.0 mm
10:22 41 °F /  5.0 °C 26.4 °F /  -3.1 °C 30.6 in /  1035.1 hPa ENE 10 mph /  16.1 km/h 19 mph /  30.6 km/h 56 % 0 in /  0.0 mm
10:32 41.7 °F /  5.4 °C 25 °F /  -3.9 °C 30.6 in /  1035.1 hPa ENE 15 mph /  24.1 km/h 18 mph /  29.0 km/h 51 % 0 in /  0.0 mm
10:42 41.7 °F /  5.4 °C 25.3 °F /  -3.7 °C 30.6 in /  1035.1 hPa East 12 mph /  19.3 km/h 20 mph /  32.2 km/h 52 % 0 in /  0.0 mm
10:52 42.4 °F /  5.8 °C 25.2 °F /  -3.8 °C 30.6 in /  1034.8 hPa ENE 14 mph /  22.5 km/h 20 mph /  32.2 km/h 50 % 0 in /  0.0 mm
10:57 42.4 °F /  5.8 °C 24.6 °F /  -4.1 °C 30.6 in /  1035.1 hPa NE 6 mph /  9.7 km/h 21 mph /  33.8 km/h 49 % 0 in /  0.0 mm
11:02 43 °F /  6.1 °C 24.1 °F /  -4.4 °C 30.6 in /  1035.1 hPa ENE 9 mph /  14.5 km/h 21 mph /  33.8 km/h 47 % 0 in /  0.0 mm
11:12 43.3 °F /  6.3 °C 23.4 °F /  -4.8 °C 30.6 in /  1035.1 hPa NNE 19 mph /  30.6 km/h 23 mph /  37.0 km/h 45 % 0 in /  0.0 mm
11:17 43.7 °F /  6.5 °C 23.7 °F /  -4.6 °C 30.6 in /  1034.8 hPa NE 13 mph /  20.9 km/h 23 mph /  37.0 km/h 45 % 0 in /  0.0 mm
11:22 43.9 °F /  6.6 °C 23.4 °F /  -4.8 °C 30.6 in /  1035.1 hPa ENE 12 mph /  19.3 km/h 23 mph /  37.0 km/h 44 % 0 in /  0.0 mm
11:32 44.8 °F /  7.1 °C 23 °F /  -5.0 °C 30.6 in /  1034.8 hPa NE 12 mph /  19.3 km/h 22 mph /  35.4 km/h 42 % 0 in /  0.0 mm
11:42 44.4 °F /  6.9 °C 22.8 °F /  -5.1 °C 30.6 in /  1035.1 hPa NE 20 mph /  32.2 km/h 20 mph /  32.2 km/h 42 % 0 in /  0.0 mm
11:47 44.6 °F /  7.0 °C 24.1 °F /  -4.4 °C 30.6 in /  1035.1 hPa ENE 8 mph /  12.9 km/h 23 mph /  37.0 km/h 44 % 0 in /  0.0 mm
11:52 44.8 °F /  7.1 °C 22.5 °F /  -5.3 °C 30.6 in /  1035.1 hPa NE 13 mph /  20.9 km/h 23 mph /  37.0 km/h 41 % 0 in /  0.0 mm
12:02 45 °F /  7.2 °C 22.6 °F /  -5.2 °C 30.6 in /  1034.8 hPa NE 8 mph /  12.9 km/h 22 mph /  35.4 km/h 41 % 0 in /  0.0 mm
12:12 45.7 °F /  7.6 °C 23.4 °F /  -4.8 °C 30.6 in /  1034.8 hPa ENE 14 mph /  22.5 km/h 21 mph /  33.8 km/h 41 % 0 in /  0.0 mm
12:17 46 °F /  7.8 °C 23.7 °F /  -4.6 °C 30.6 in /  1034.8 hPa East 8 mph /  12.9 km/h 20 mph /  32.2 km/h 41 % 0 in /  0.0 mm
12:22 46.2 °F /  7.9 °C 23.9 °F /  -4.5 °C 30.6 in /  1034.8 hPa NE 13 mph /  20.9 km/h 20 mph /  32.2 km/h 41 % 0 in /  0.0 mm
12:32 46.8 °F /  8.2 °C 23.7 °F /  -4.6 °C 30.6 in /  1034.8 hPa ENE 19 mph /  30.6 km/h 20 mph /  32.2 km/h 40 % 0 in /  0.0 mm
12:42 47.1 °F /  8.4 °C 24.6 °F /  -4.1 °C 30.6 in /  1034.8 hPa NE 5 mph /  8.0 km/h 22 mph /  35.4 km/h 41 % 0 in /  0.0 mm
12:47 47.7 °F /  8.7 °C 24.4 °F /  -4.2 °C 30.5 in /  1034.4 hPa NNW 9 mph /  14.5 km/h 22 mph /  35.4 km/h 40 % 0 in /  0.0 mm
12:52 47.5 °F /  8.6 °C 23.7 °F /  -4.6 °C 30.5 in /  1034.4 hPa NE 12 mph /  19.3 km/h 22 mph /  35.4 km/h 39 % 0 in /  0.0 mm
13:02 47.8 °F /  8.8 °C 22.8 °F /  -5.1 °C 30.5 in /  1034.4 hPa NNE 16 mph /  25.7 km/h 18 mph /  29.0 km/h 37 % 0 in /  0.0 mm
13:07 48 °F /  8.9 °C 25.5 °F /  -3.6 °C 30.5 in /  1034.4 hPa NNE 16 mph /  25.7 km/h 18 mph /  29.0 km/h 41 % 0 in /  0.0 mm
13:12 47.7 °F /  8.7 °C 24.4 °F /  -4.2 °C 30.5 in /  1034.4 hPa NNE 8 mph /  12.9 km/h 18 mph /  29.0 km/h 40 % 0 in /  0.0 mm
13:17 48 °F /  8.9 °C 24.8 °F /  -4.0 °C 30.5 in /  1034.4 hPa ENE 7 mph /  11.3 km/h 23 mph /  37.0 km/h 40 % 0 in /  0.0 mm
13:22 48.4 °F /  9.1 °C 25.2 °F /  -3.8 °C 30.5 in /  1034.4 hPa NE 13 mph /  20.9 km/h 23 mph /  37.0 km/h 40 % 0 in /  0.0 mm
13:32 48.6 °F /  9.2 °C 24.8 °F /  -4.0 °C 30.5 in /  1034.4 hPa NNE 9 mph /  14.5 km/h 19 mph /  30.6 km/h 39 % 0 in /  0.0 mm
13:37 48.7 °F /  9.3 °C 24.3 °F /  -4.3 °C 30.5 in /  1034.4 hPa ENE 11 mph /  17.7 km/h 20 mph /  32.2 km/h 38 % 0 in /  0.0 mm
13:42 49.1 °F /  9.5 °C 25.2 °F /  -3.8 °C 30.5 in /  1034.1 hPa NNE 11 mph /  17.7 km/h 20 mph /  32.2 km/h 39 % 0 in /  0.0 mm
13:47 49.5 °F /  9.7 °C 26.1 °F /  -3.3 °C 30.5 in /  1034.1 hPa NE 11 mph /  17.7 km/h 20 mph /  32.2 km/h 40 % 0 in /  0.0 mm
13:52 49.1 °F /  9.5 °C 25.2 °F /  -3.8 °C 30.5 in /  1034.1 hPa NNE 20 mph /  32.2 km/h 20 mph /  32.2 km/h 39 % 0 in /  0.0 mm
14:02 49.8 °F /  9.9 °C 27.7 °F /  -2.4 °C 30.5 in /  1034.1 hPa NNE 9 mph /  14.5 km/h 20 mph /  32.2 km/h 42 % 0 in /  0.0 mm
14:07 49.8 °F /  9.9 °C 27.7 °F /  -2.4 °C 30.5 in /  1034.1 hPa NNE 7 mph /  11.3 km/h 21 mph /  33.8 km/h 42 % 0 in /  0.0 mm
14:12 50.2 °F /  10.1 °C 28 °F /  -2.2 °C 30.5 in /  1034.1 hPa NNE 9 mph /  14.5 km/h 21 mph /  33.8 km/h 42 % 0 in /  0.0 mm
14:17 49.8 °F /  9.9 °C 27.7 °F /  -2.4 °C 30.5 in /  1034.1 hPa NE 9 mph /  14.5 km/h 17 mph /  27.4 km/h 42 % 0 in /  0.0 mm
14:22 49.8 °F /  9.9 °C 27.1 °F /  -2.7 °C 30.5 in /  1034.1 hPa NNE 11 mph /  17.7 km/h 17 mph /  27.4 km/h 41 % 0 in /  0.0 mm
14:27 50.2 °F /  10.1 °C 27.3 °F /  -2.6 °C 30.5 in /  1034.1 hPa NE 6 mph /  9.7 km/h 23 mph /  37.0 km/h 41 % 0 in /  0.0 mm
14:32 50.4 °F /  10.2 °C 27.5 °F /  -2.5 °C 30.5 in /  1034.1 hPa NE 9 mph /  14.5 km/h 23 mph /  37.0 km/h 41 % 0 in /  0.0 mm
14:37 49.8 °F /  9.9 °C 27.1 °F /  -2.7 °C 30.5 in /  1034.1 hPa NNE 12 mph /  19.3 km/h 18 mph /  29.0 km/h 41 % 0 in /  0.0 mm
14:42 50.5 °F /  10.3 °C 28.9 °F /  -1.7 °C 30.5 in /  1034.1 hPa North 6 mph /  9.7 km/h 18 mph /  29.0 km/h 43 % 0 in /  0.0 mm
14:47 50.7 °F /  10.4 °C 27.9 °F /  -2.3 °C 30.5 in /  1034.1 hPa NNE 18 mph /  29.0 km/h 19 mph /  30.6 km/h 41 % 0 in /  0.0 mm
14:52 50.5 °F /  10.3 °C 27.1 °F /  -2.7 °C 30.5 in /  1034.1 hPa ENE 6 mph /  9.7 km/h 19 mph /  30.6 km/h 40 % 0 in /  0.0 mm
14:57 51.1 °F /  10.6 °C 29.3 °F /  -1.5 °C 30.5 in /  1034.1 hPa ENE 9 mph /  14.5 km/h 19 mph /  30.6 km/h 43 % 0 in /  0.0 mm
15:02 50.9 °F /  10.5 °C 28 °F /  -2.2 °C 30.5 in /  1034.1 hPa NNE 8 mph /  12.9 km/h 19 mph /  30.6 km/h 41 % 0 in /  0.0 mm
15:07 50.7 °F /  10.4 °C 27.9 °F /  -2.3 °C 30.5 in /  1033.7 hPa NE 11 mph /  17.7 km/h 18 mph /  29.0 km/h 41 % 0 in /  0.0 mm
15:12 50.5 °F /  10.3 °C 27.7 °F /  -2.4 °C 30.5 in /  1033.7 hPa NNE 13 mph /  20.9 km/h 18 mph /  29.0 km/h 41 % 0 in /  0.0 mm
15:17 50.9 °F /  10.5 °C 28 °F /  -2.2 °C 30.5 in /  1033.7 hPa NNW 10 mph /  16.1 km/h 18 mph /  29.0 km/h 41 % 0 in /  0.0 mm
15:22 51.1 °F /  10.6 °C 28.8 °F /  -1.8 °C 30.5 in /  1033.7 hPa NNE 9 mph /  14.5 km/h 18 mph /  29.0 km/h 42 % 0 in /  0.0 mm
15:27 51.1 °F /  10.6 °C 28.2 °F /  -2.1 °C 30.5 in /  1033.7 hPa NE 8 mph /  12.9 km/h 18 mph /  29.0 km/h 41 % 0 in /  0.0 mm
15:32 51.4 °F /  10.8 °C 29.1 °F /  -1.6 °C 30.5 in /  1033.7 hPa NNE 15 mph /  24.1 km/h 18 mph /  29.0 km/h 42 % 0 in /  0.0 mm
15:37 51.3 °F /  10.7 °C 27.1 °F /  -2.7 °C 30.5 in /  1033.7 hPa NE 10 mph /  16.1 km/h 19 mph /  30.6 km/h 39 % 0 in /  0.0 mm
15:42 51.6 °F /  10.9 °C 29.3 °F /  -1.5 °C 30.5 in /  1033.4 hPa NNE 2 mph /  3.2 km/h 19 mph /  30.6 km/h 42 % 0 in /  0.0 mm
15:47 51.6 °F /  10.9 °C 26.8 °F /  -2.9 °C 30.5 in /  1033.4 hPa NE 12 mph /  19.3 km/h 19 mph /  30.6 km/h 38 % 0 in /  0.0 mm
15:52 51.8 °F /  11.0 °C 27.7 °F /  -2.4 °C 30.5 in /  1033.4 hPa NE 12 mph /  19.3 km/h 19 mph /  30.6 km/h 39 % 0 in /  0.0 mm
15:57 52.2 °F /  11.2 °C 27.9 °F /  -2.3 °C 30.5 in /  1033.4 hPa NE 6 mph /  9.7 km/h 18 mph /  29.0 km/h 39 % 0 in /  0.0 mm
16:02 52.2 °F /  11.2 °C 27.3 °F /  -2.6 °C 30.5 in /  1033.4 hPa NNW 10 mph /  16.1 km/h 18 mph /  29.0 km/h 38 % 0 in /  0.0 mm
16:07 51.8 °F /  11.0 °C 28.8 °F /  -1.8 °C 30.5 in /  1033.4 hPa North 7 mph /  11.3 km/h 21 mph /  33.8 km/h 41 % 0 in /  0.0 mm
16:12 51.6 °F /  10.9 °C 29.3 °F /  -1.5 °C 30.5 in /  1033.1 hPa NNE 4 mph /  6.4 km/h 21 mph /  33.8 km/h 42 % 0 in /  0.0 mm
16:17 51.8 °F /  11.0 °C 27 °F /  -2.8 °C 30.5 in /  1033.4 hPa NE 14 mph /  22.5 km/h 21 mph /  33.8 km/h 38 % 0 in /  0.0 mm
16:22 51.6 °F /  10.9 °C 28 °F /  -2.2 °C 30.5 in /  1033.4 hPa ENE 6 mph /  9.7 km/h 21 mph /  33.8 km/h 40 % 0 in /  0.0 mm
16:27 52 °F /  11.1 °C 25.9 °F /  -3.4 °C 30.5 in /  1033.1 hPa NE 6 mph /  9.7 km/h 21 mph /  33.8 km/h 36 % 0 in /  0.0 mm
16:37 52.5 °F /  11.4 °C 27 °F /  -2.8 °C 30.5 in /  1033.1 hPa North 14 mph /  22.5 km/h 20 mph /  32.2 km/h 37 % 0 in /  0.0 mm
16:42 51.8 °F /  11.0 °C 27 °F /  -2.8 °C 30.5 in /  1033.1 hPa NE 12 mph /  19.3 km/h 20 mph /  32.2 km/h 38 % 0 in /  0.0 mm
16:47 52.3 °F /  11.3 °C 26.8 °F /  -2.9 °C 30.5 in /  1033.1 hPa NNE 15 mph /  24.1 km/h 20 mph /  32.2 km/h 37 % 0 in /  0.0 mm
16:52 52.2 °F /  11.2 °C 26.1 °F /  -3.3 °C 30.5 in /  1033.1 hPa NE 14 mph /  22.5 km/h 20 mph /  32.2 km/h 36 % 0 in /  0.0 mm
16:57 52.3 °F /  11.3 °C 26.2 °F /  -3.2 °C 30.5 in /  1033.1 hPa NE 8 mph /  12.9 km/h 18 mph /  29.0 km/h 36 % 0 in /  0.0 mm
17:02 52.7 °F /  11.5 °C 27.1 °F /  -2.7 °C 30.5 in /  1033.1 hPa NNE 9 mph /  14.5 km/h 18 mph /  29.0 km/h 37 % 0 in /  0.0 mm
17:07 52.5 °F /  11.4 °C 27 °F /  -2.8 °C 30.5 in /  1033.1 hPa NE 6 mph /  9.7 km/h 16 mph /  25.7 km/h 37 % 0 in /  0.0 mm
17:17 52.7 °F /  11.5 °C 27.1 °F /  -2.7 °C 30.5 in /  1032.7 hPa NE 12 mph /  19.3 km/h 16 mph /  25.7 km/h 37 % 0 in /  0.0 mm
17:22 52.9 °F /  11.6 °C 27.3 °F /  -2.6 °C 30.5 in /  1032.7 hPa ENE 5 mph /  8.0 km/h 16 mph /  25.7 km/h 37 % 0 in /  0.0 mm
17:27 52.9 °F /  11.6 °C 26.6 °F /  -3.0 °C 30.5 in /  1032.7 hPa NE 13 mph /  20.9 km/h 15 mph /  24.1 km/h 36 % 0 in /  0.0 mm
17:32 52.5 °F /  11.4 °C 26.2 °F /  -3.2 °C 30.5 in /  1032.7 hPa NNE 12 mph /  19.3 km/h 15 mph /  24.1 km/h 36 % 0 in /  0.0 mm
17:37 52.9 °F /  11.6 °C 28.6 °F /  -1.9 °C 30.5 in /  1032.7 hPa NE 10 mph /  16.1 km/h 16 mph /  25.7 km/h 39 % 0 in /  0.0 mm
17:42 52.9 °F /  11.6 °C 26.6 °F /  -3.0 °C 30.5 in /  1032.7 hPa ENE 7 mph /  11.3 km/h 16 mph /  25.7 km/h 36 % 0 in /  0.0 mm
17:47 52.3 °F /  11.3 °C 26.2 °F /  -3.2 °C 30.5 in /  1032.7 hPa ENE 6 mph /  9.7 km/h 16 mph /  25.7 km/h 36 % 0 in /  0.0 mm
17:52 52.3 °F /  11.3 °C 26.2 °F /  -3.2 °C 30.5 in /  1032.7 hPa NE 10 mph /  16.1 km/h 16 mph /  25.7 km/h 36 % 0 in /  0.0 mm
17:57 52.7 °F /  11.5 °C 26.4 °F /  -3.1 °C 30.5 in /  1032.7 hPa ENE 7 mph /  11.3 km/h 16 mph /  25.7 km/h 36 % 0 in /  0.0 mm
18:02 52.5 °F /  11.4 °C 25.7 °F /  -3.5 °C 30.5 in /  1032.7 hPa NE 9 mph /  14.5 km/h 16 mph /  25.7 km/h 35 % 0 in /  0.0 mm
18:07 52.5 °F /  11.4 °C 27 °F /  -2.8 °C 30.5 in /  1032.7 hPa NNE 14 mph /  22.5 km/h 17 mph /  27.4 km/h 37 % 0 in /  0.0 mm
18:12 52.5 °F /  11.4 °C 26.2 °F /  -3.2 °C 30.5 in /  1032.7 hPa NE 5 mph /  8.0 km/h 17 mph /  27.4 km/h 36 % 0 in /  0.0 mm
18:17 52.5 °F /  11.4 °C 27 °F /  -2.8 °C 30.5 in /  1032.7 hPa NNE 5 mph /  8.0 km/h 17 mph /  27.4 km/h 37 % 0 in /  0.0 mm
18:22 52.5 °F /  11.4 °C 26.2 °F /  -3.2 °C 30.5 in /  1032.7 hPa East 9 mph /  14.5 km/h 15 mph /  24.1 km/h 36 % 0 in /  0.0 mm
18:27 52.3 °F /  11.3 °C 26.2 °F /  -3.2 °C 30.5 in /  1032.7 hPa ENE 7 mph /  11.3 km/h 15 mph /  24.1 km/h 36 % 0 in /  0.0 mm
18:32 52.3 °F /  11.3 °C 26.2 °F /  -3.2 °C 30.5 in /  1032.7 hPa ESE 8 mph /  12.9 km/h 18 mph /  29.0 km/h 36 % 0 in /  0.0 mm
18:37 52.3 °F /  11.3 °C 27.5 °F /  -2.5 °C 30.5 in /  1032.7 hPa NNE 11 mph /  17.7 km/h 18 mph /  29.0 km/h 38 % 0 in /  0.0 mm
18:42 52.3 °F /  11.3 °C 27.5 °F /  -2.5 °C 30.5 in /  1032.7 hPa NE 4 mph /  6.4 km/h 17 mph /  27.4 km/h 38 % 0 in /  0.0 mm
18:47 52.5 °F /  11.4 °C 27 °F /  -2.8 °C 30.5 in /  1032.7 hPa ENE 11 mph /  17.7 km/h 14 mph /  22.5 km/h 37 % 0 in /  0.0 mm
18:52 52.3 °F /  11.3 °C 26.8 °F /  -2.9 °C 30.5 in /  1032.7 hPa NNE 5 mph /  8.0 km/h 14 mph /  22.5 km/h 37 % 0 in /  0.0 mm
18:57 52 °F /  11.1 °C 26.6 °F /  -3.0 °C 30.5 in /  1032.7 hPa ENE 9 mph /  14.5 km/h 14 mph /  22.5 km/h 37 % 0 in /  0.0 mm
19:07 52 °F /  11.1 °C 27.9 °F /  -2.3 °C 30.5 in /  1032.7 hPa NE 10 mph /  16.1 km/h 15 mph /  24.1 km/h 39 % 0 in /  0.0 mm
19:12 51.8 °F /  11.0 °C 27.7 °F /  -2.4 °C 30.5 in /  1032.7 hPa NE 10 mph /  16.1 km/h 15 mph /  24.1 km/h 39 % 0 in /  0.0 mm
19:17 51.4 °F /  10.8 °C 27.3 °F /  -2.6 °C 30.5 in /  1032.7 hPa NE 7 mph /  11.3 km/h 17 mph /  27.4 km/h 39 % 0 in /  0.0 mm
19:22 51.4 °F /  10.8 °C 27.3 °F /  -2.6 °C 30.5 in /  1032.4 hPa ENE 5 mph /  8.0 km/h 17 mph /  27.4 km/h 39 % 0 in /  0.0 mm
19:27 51.4 °F /  10.8 °C 27.9 °F /  -2.3 °C 30.5 in /  1032.7 hPa NNE 12 mph /  19.3 km/h 16 mph /  25.7 km/h 40 % 0 in /  0.0 mm
19:32 51.3 °F /  10.7 °C 27.1 °F /  -2.7 °C 30.5 in /  1032.4 hPa NE 8 mph /  12.9 km/h 16 mph /  25.7 km/h 39 % 0 in /  0.0 mm
19:37 51.1 °F /  10.6 °C 27.7 °F /  -2.4 °C 30.5 in /  1032.4 hPa NE 5 mph /  8.0 km/h 16 mph /  25.7 km/h 40 % 0 in /  0.0 mm
19:42 51.1 °F /  10.6 °C 27.7 °F /  -2.4 °C 30.5 in /  1032.4 hPa NNE 8 mph /  12.9 km/h 16 mph /  25.7 km/h 40 % 0 in /  0.0 mm
19:47 50.9 °F /  10.5 °C 26.8 °F /  -2.9 °C 30.5 in /  1032.4 hPa NE 7 mph /  11.3 km/h 13 mph /  20.9 km/h 39 % 0 in /  0.0 mm
19:52 51.1 °F /  10.6 °C 27 °F /  -2.8 °C 30.5 in /  1032.4 hPa NE 6 mph /  9.7 km/h 13 mph /  20.9 km/h 39 % 0 in /  0.0 mm
19:57 50.7 °F /  10.4 °C 27.9 °F /  -2.3 °C 30.5 in /  1032.4 hPa NNE 8 mph /  12.9 km/h 16 mph /  25.7 km/h 41 % 0 in /  0.0 mm
20:02 50.5 °F /  10.3 °C 27.1 °F /  -2.7 °C 30.5 in /  1032.4 hPa NE 10 mph /  16.1 km/h 16 mph /  25.7 km/h 40 % 0 in /  0.0 mm
20:07 50.5 °F /  10.3 °C 27.1 °F /  -2.7 °C 30.5 in /  1032.4 hPa NE 12 mph /  19.3 km/h 14 mph /  22.5 km/h 40 % 0 in /  0.0 mm
20:12 50.4 °F /  10.2 °C 27.5 °F /  -2.5 °C 30.5 in /  1032.4 hPa NNE 7 mph /  11.3 km/h 14 mph /  22.5 km/h 41 % 0 in /  0.0 mm
20:17 50 °F /  10.0 °C 27.1 °F /  -2.7 °C 30.5 in /  1032.4 hPa NNE 6 mph /  9.7 km/h 14 mph /  22.5 km/h 41 % 0 in /  0.0 mm
20:22 49.6 °F /  9.8 °C 27.5 °F /  -2.5 °C 30.5 in /  1032.4 hPa NE 11 mph /  17.7 km/h 14 mph /  22.5 km/h 42 % 0 in /  0.0 mm
20:32 49.1 °F /  9.5 °C 27.5 °F /  -2.5 °C 30.5 in /  1032.4 hPa NE 7 mph /  11.3 km/h 12 mph /  19.3 km/h 43 % 0 in /  0.0 mm
20:37 48.6 °F /  9.2 °C 27.1 °F /  -2.7 °C 30.5 in /  1032.7 hPa NNE 9 mph /  14.5 km/h 12 mph /  19.3 km/h 43 % 0 in /  0.0 mm
20:42 48.4 °F /  9.1 °C 27.5 °F /  -2.5 °C 30.5 in /  1032.7 hPa NNE 3 mph /  4.8 km/h 12 mph /  19.3 km/h 44 % 0 in /  0.0 mm
20:47 48 °F /  8.9 °C 27.7 °F /  -2.4 °C 30.5 in /  1032.7 hPa NNE 1 mph /  1.6 km/h 11 mph /  17.7 km/h 45 % 0 in /  0.0 mm
20:57 47.5 °F /  8.6 °C 27.7 °F /  -2.4 °C 30.5 in /  1032.7 hPa NNE 5 mph /  8.0 km/h 6 mph /  9.7 km/h 46 % 0 in /  0.0 mm
21:02 46.9 °F /  8.3 °C 27.7 °F /  -2.4 °C 30.5 in /  1032.7 hPa North 3 mph /  4.8 km/h 6 mph /  9.7 km/h 47 % 0 in /  0.0 mm
21:07 46.6 °F /  8.1 °C 27.9 °F /  -2.3 °C 30.5 in /  1032.7 hPa NNE 1 mph /  1.6 km/h 7 mph /  11.3 km/h 48 % 0 in /  0.0 mm
21:12 46 °F /  7.8 °C 27.5 °F /  -2.5 °C 30.5 in /  1032.7 hPa Calm   7 mph /  11.3 km/h 48 % 0 in /  0.0 mm
21:17 45.7 °F /  7.6 °C 27.7 °F /  -2.4 °C 30.5 in /  1032.7 hPa NE 1 mph /  1.6 km/h 7 mph /  11.3 km/h 49 % 0 in /  0.0 mm
21:22 45.3 °F /  7.4 °C 27.9 °F /  -2.3 °C 30.5 in /  1032.7 hPa NNE 1 mph /  1.6 km/h 7 mph /  11.3 km/h 50 % 0 in /  0.0 mm
21:27 45.1 °F /  7.3 °C 27.7 °F /  -2.4 °C 30.5 in /  1032.7 hPa Calm   6 mph /  9.7 km/h 50 % 0 in /  0.0 mm
21:32 44.8 °F /  7.1 °C 27.7 °F /  -2.4 °C 30.5 in /  1032.7 hPa Calm   6 mph /  9.7 km/h 51 % 0 in /  0.0 mm
21:37 44.8 °F /  7.1 °C 27.7 °F /  -2.4 °C 30.5 in /  1032.7 hPa North 1 mph /  1.6 km/h 4 mph /  6.4 km/h 51 % 0 in /  0.0 mm
21:42 44.4 °F /  6.9 °C 27.9 °F /  -2.3 °C 30.5 in /  1032.7 hPa NNE 3 mph /  4.8 km/h 4 mph /  6.4 km/h 52 % 0 in /  0.0 mm
21:47 44.4 °F /  6.9 °C 27.9 °F /  -2.3 °C 30.5 in /  1032.7 hPa Calm   7 mph /  11.3 km/h 52 % 0 in /  0.0 mm
21:52 44.6 °F /  7.0 °C 28 °F /  -2.2 °C 30.5 in /  1033.1 hPa NE 2 mph /  3.2 km/h 7 mph /  11.3 km/h 52 % 0 in /  0.0 mm
22:02 44.8 °F /  7.1 °C 28.2 °F /  -2.1 °C 30.5 in /  1033.1 hPa NE 3 mph /  4.8 km/h 11 mph /  17.7 km/h 52 % 0 in /  0.0 mm
22:07 44.6 °F /  7.0 °C 28 °F /  -2.2 °C 30.5 in /  1032.7 hPa NE 4 mph /  6.4 km/h 9 mph /  14.5 km/h 52 % 0 in /  0.0 mm
22:12 44.4 °F /  6.9 °C 27.9 °F /  -2.3 °C 30.5 in /  1032.7 hPa NNE 3 mph /  4.8 km/h 9 mph /  14.5 km/h 52 % 0 in /  0.0 mm
22:17 44.8 °F /  7.1 °C 28.2 °F /  -2.1 °C 30.5 in /  1032.7 hPa NE 2 mph /  3.2 km/h 12 mph /  19.3 km/h 52 % 0 in /  0.0 mm
22:22 45 °F /  7.2 °C 27.9 °F /  -2.3 °C 30.5 in /  1033.1 hPa NE 4 mph /  6.4 km/h 12 mph /  19.3 km/h 51 % 0 in /  0.0 mm
22:27 45 °F /  7.2 °C 27.9 °F /  -2.3 °C 30.5 in /  1033.1 hPa NE 8 mph /  12.9 km/h 12 mph /  19.3 km/h 51 % 0 in /  0.0 mm
22:32 45.3 °F /  7.4 °C 28.2 °F /  -2.1 °C 30.5 in /  1033.1 hPa NE 8 mph /  12.9 km/h 12 mph /  19.3 km/h 51 % 0 in /  0.0 mm
22:37 45.5 °F /  7.5 °C 27.9 °F /  -2.3 °C 30.5 in /  1033.1 hPa NNE 9 mph /  14.5 km/h 14 mph /  22.5 km/h 50 % 0 in /  0.0 mm
22:42 45.3 °F /  7.4 °C 27.9 °F /  -2.3 °C 30.5 in /  1033.1 hPa NNE 3 mph /  4.8 km/h 14 mph /  22.5 km/h 50 % 0 in /  0.0 mm
22:47 44.8 °F /  7.1 °C 28.2 °F /  -2.1 °C 30.5 in /  1033.1 hPa NNE 3 mph /  4.8 km/h 14 mph /  22.5 km/h 52 % 0 in /  0.0 mm
22:52 44.4 °F /  6.9 °C 28.4 °F /  -2.0 °C 30.5 in /  1033.1 hPa North 2 mph /  3.2 km/h 14 mph /  22.5 km/h 53 % 0 in /  0.0 mm
22:57 44.2 °F /  6.8 °C 28.2 °F /  -2.1 °C 30.5 in /  1033.1 hPa NE 5 mph /  8.0 km/h 11 mph /  17.7 km/h 53 % 0 in /  0.0 mm
23:02 44.1 °F /  6.7 °C 28 °F /  -2.2 °C 30.5 in /  1033.1 hPa NE 3 mph /  4.8 km/h 11 mph /  17.7 km/h 53 % 0 in /  0.0 mm
23:07 44.1 °F /  6.7 °C 27.5 °F /  -2.5 °C 30.5 in /  1033.1 hPa North 6 mph /  9.7 km/h 13 mph /  20.9 km/h 52 % 0 in /  0.0 mm
23:12 44.2 °F /  6.8 °C 27.7 °F /  -2.4 °C 30.5 in /  1033.1 hPa NNE 5 mph /  8.0 km/h 13 mph /  20.9 km/h 52 % 0 in /  0.0 mm
23:22 43.9 °F /  6.6 °C 27.9 °F /  -2.3 °C 30.5 in /  1033.1 hPa NNE 3 mph /  4.8 km/h 13 mph /  20.9 km/h 53 % 0 in /  0.0 mm
23:32 43.5 °F /  6.4 °C 28 °F /  -2.2 °C 30.5 in /  1033.1 hPa NNE 1 mph /  1.6 km/h 11 mph /  17.7 km/h 54 % 0 in /  0.0 mm
23:37 43.3 °F /  6.3 °C 28.2 °F /  -2.1 °C 30.5 in /  1033.1 hPa NE 5 mph /  8.0 km/h 7 mph /  11.3 km/h 55 % 0 in /  0.0 mm
23:42 43.5 °F /  6.4 °C 28 °F /  -2.2 °C 30.5 in /  1033.1 hPa NNE 7 mph /  11.3 km/h 7 mph /  11.3 km/h 54 % 0 in /  0.0 mm
23:47 43.9 °F /  6.6 °C 28.4 °F /  -2.0 °C 30.5 in /  1033.1 hPa North 4 mph /  6.4 km/h 12 mph /  19.3 km/h 54 % 0 in /  0.0 mm
23:52 44.1 °F /  6.7 °C 28 °F /  -2.2 °C 30.5 in /  1033.1 hPa NNE 10 mph /  16.1 km/h 12 mph /  19.3 km/h 53 % 0 in /  0.0 mm
Meteo18
Compliments of Weather Underground - 4 mb

Script developed by  Jim McMurry - jmcmurry@mwt.net Adapted for the template by  Wim van der Kuil - Leuven-Template.eu

You find our weather info also at:

European Weather Network

Weather Underground

Equipment we use:

Weather-station
Davis Vue

Weather-program
Meteohub

Weather-server
Raspberry PI 2 B+

Provider
1 and 1

Davis Vue

Meteohub

Raspberry PI 2 B+

1 and 1